createdAt,value
2023-04-04T00:00:57.176Z,4.72
2023-04-04T00:03:25.888Z,4.80
2023-04-04T00:05:54.253Z,4.93
2023-04-04T00:08:23.116Z,4.80
2023-04-04T00:10:51.348Z,5.05
2023-04-04T00:13:20.117Z,4.35
2023-04-04T00:15:48.519Z,4.95
2023-04-04T00:18:19.256Z,4.75
2023-04-04T00:20:47.607Z,4.60
2023-04-04T00:23:16.084Z,5.30
2023-04-04T00:25:45.383Z,4.68
2023-04-04T00:28:13.824Z,5.13
2023-04-04T00:30:42.202Z,4.20
2023-04-04T00:33:10.921Z,4.50
2023-04-04T00:35:40.803Z,5.03
2023-04-04T00:38:09.461Z,4.30
2023-04-04T00:40:42.565Z,4.25
2023-04-04T00:43:11.637Z,4.70
2023-04-04T00:45:40.202Z,4.50
2023-04-04T00:48:08.797Z,4.15
2023-04-04T00:50:37.225Z,4.13
2023-04-04T00:53:07.447Z,3.97
2023-04-04T00:55:38.660Z,4.38
2023-04-04T00:58:07.466Z,4.38
2023-04-04T01:00:36.440Z,4.75
2023-04-04T01:03:07.858Z,5.25
2023-04-04T01:08:06.178Z,4.78
2023-04-04T01:10:34.724Z,5.57
2023-04-04T01:13:03.249Z,5.78
2023-04-04T01:15:31.660Z,5.47
2023-04-04T01:18:03.957Z,4.65
2023-04-04T01:20:33.763Z,4.45
2023-04-04T01:23:02.488Z,4.32
2023-04-04T01:25:34.155Z,4.47
2023-04-04T01:28:02.743Z,5.07
2023-04-04T01:30:33.926Z,5.03
2023-04-04T01:33:05.356Z,4.60
2023-04-04T01:35:37.974Z,5.05
2023-04-04T01:38:17.011Z,4.25
2023-04-04T01:40:50.254Z,4.82
2023-04-04T01:43:18.974Z,4.78
2023-04-04T01:45:47.379Z,5.03
2023-04-04T01:48:16.783Z,5.43
2023-04-04T01:50:45.105Z,4.18
2023-04-04T01:53:13.703Z,5.15
2023-04-04T01:55:42.545Z,4.45
2023-04-04T01:58:12.440Z,4.53
2023-04-04T02:00:40.757Z,4.75
2023-04-04T02:03:09.628Z,5.18
2023-04-04T02:05:37.993Z,5.25
2023-04-04T02:08:07.739Z,5.07
2023-04-04T02:10:35.975Z,5.00
2023-04-04T02:13:04.498Z,4.50
2023-04-04T02:15:34.531Z,5.38
2023-04-04T02:18:03.708Z,4.63
2023-04-04T02:20:31.878Z,4.82
2023-04-04T02:23:00.361Z,5.47
2023-04-04T02:25:28.485Z,4.93
2023-04-04T02:27:57.032Z,5.40
2023-04-04T02:30:25.234Z,5.10
2023-04-04T02:32:55.200Z,5.13
2023-04-04T02:35:23.471Z,4.72
2023-04-04T02:37:52.056Z,4.65
2023-04-04T02:40:20.171Z,4.18
2023-04-04T02:42:48.660Z,4.75
2023-04-04T02:45:17.697Z,4.60
2023-04-04T02:47:51.172Z,4.90
2023-04-04T02:50:21.340Z,5.03
2023-04-04T02:52:49.887Z,4.80
2023-04-04T02:55:18.172Z,4.55
2023-04-04T02:57:52.374Z,4.57
2023-04-04T03:00:21.447Z,4.43
2023-04-04T03:02:55.151Z,4.72
2023-04-04T03:05:25.094Z,5.25
2023-04-04T03:07:56.341Z,4.45
2023-04-04T03:10:24.655Z,5.50
2023-04-04T03:12:53.250Z,4.82
2023-04-04T03:15:21.626Z,5.03
2023-04-04T03:17:50.232Z,5.00
2023-04-04T03:20:18.780Z,5.43
2023-04-04T03:22:48.693Z,4.40
2023-04-04T03:25:17.193Z,4.80
2023-04-04T03:27:45.830Z,4.78
2023-04-04T03:30:14.269Z,4.45
2023-04-04T03:32:42.857Z,4.72
2023-04-04T03:35:11.859Z,4.97
2023-04-04T03:37:40.578Z,4.70
2023-04-04T03:40:11.149Z,5.13
2023-04-04T03:42:39.664Z,5.05
2023-04-04T03:45:08.798Z,5.28
2023-04-04T03:47:37.461Z,5.10
2023-04-04T03:50:06.415Z,4.95
2023-04-04T03:52:38.981Z,5.40
2023-04-04T03:55:08.237Z,5.38
2023-04-04T03:57:38.094Z,5.53
2023-04-04T04:00:07.384Z,5.45
2023-04-04T04:02:36.029Z,5.47
2023-04-04T04:05:04.699Z,4.95
2023-04-04T04:07:33.173Z,5.72
2023-04-04T04:10:01.722Z,6.13
2023-04-04T04:12:30.246Z,5.32
2023-04-04T04:14:59.776Z,5.75
2023-04-04T04:17:28.346Z,5.63
2023-04-04T04:19:56.490Z,5.28
2023-04-04T04:22:25.060Z,5.55
2023-04-04T04:24:53.199Z,5.90
2023-04-04T04:27:21.575Z,6.20
2023-04-04T04:29:49.893Z,6.22
2023-04-04T04:32:20.302Z,5.30
2023-04-04T04:34:48.424Z,5.82
2023-04-04T04:37:17.524Z,5.47
2023-04-04T04:39:45.663Z,5.43
2023-04-04T04:42:14.097Z,5.78
2023-04-04T04:44:42.330Z,5.72
2023-04-04T04:47:11.380Z,5.65
2023-04-04T04:49:42.337Z,5.28
2023-04-04T04:54:39.222Z,5.30
2023-04-04T04:57:08.129Z,5.45
2023-04-04T04:59:37.234Z,5.60
2023-04-04T05:02:06.007Z,6.05
2023-04-04T05:04:34.311Z,6.20
2023-04-04T05:07:04.128Z,5.90
2023-04-04T05:09:32.522Z,5.82
2023-04-04T05:12:01.604Z,5.93
2023-04-04T05:14:29.870Z,6.15
2023-04-04T05:16:58.447Z,6.32
2023-04-04T05:19:26.835Z,7.00
2023-04-04T05:21:55.384Z,6.10
2023-04-04T05:24:24.871Z,5.60
2023-04-04T05:26:53.394Z,5.80
2023-04-04T05:29:21.873Z,5.82
2023-04-04T05:31:50.592Z,6.47
2023-04-04T05:34:18.732Z,6.38
2023-04-04T05:36:47.559Z,5.20
2023-04-04T05:39:15.750Z,5.30
2023-04-04T05:41:45.799Z,5.88
2023-04-04T05:44:14.067Z,5.70
2023-04-04T05:46:42.536Z,5.93
2023-04-04T05:49:10.705Z,6.18
2023-04-04T05:51:39.631Z,5.53
2023-04-04T05:54:08.314Z,5.55
2023-04-04T05:56:36.816Z,5.70
2023-04-04T05:59:06.695Z,5.13
2023-04-04T06:01:35.165Z,5.18
2023-04-04T06:04:03.488Z,5.50
2023-04-04T06:06:31.952Z,6.50
2023-04-04T06:09:00.175Z,5.78
2023-04-04T06:11:29.085Z,6.10
2023-04-04T06:13:57.348Z,6.43
2023-04-04T06:16:27.530Z,5.82
2023-04-04T06:18:55.965Z,5.25
2023-04-04T06:21:24.560Z,5.38
2023-04-04T06:23:52.844Z,4.18
2023-04-04T06:26:22.011Z,5.88
2023-04-04T06:28:50.944Z,5.35
2023-04-04T06:31:19.700Z,5.68
2023-04-04T06:33:49.493Z,6.40
2023-04-04T06:36:18.126Z,5.85
2023-04-04T06:38:46.426Z,3.65
2023-04-04T06:41:15.100Z,4.47
2023-04-04T06:43:43.762Z,3.67
2023-04-04T06:46:12.453Z,3.65
2023-04-04T06:48:40.776Z,3.83
2023-04-04T06:51:11.423Z,3.17
2023-04-04T06:53:39.929Z,9.82
2023-04-04T06:56:09.554Z,4.03
2023-04-04T06:58:39.228Z,3.72
2023-04-04T07:01:07.739Z,4.10
2023-04-04T07:03:36.064Z,3.80
2023-04-04T07:06:05.006Z,4.30
2023-04-04T07:08:36.662Z,4.60
2023-04-04T07:11:06.536Z,4.90
2023-04-04T07:13:35.615Z,4.18
2023-04-04T07:16:04.195Z,4.88
2023-04-04T07:18:32.484Z,4.40
2023-04-04T07:21:01.123Z,4.18
2023-04-04T07:23:29.282Z,3.47
2023-04-04T07:25:59.136Z,3.13
2023-04-04T07:28:27.300Z,2.97
2023-04-04T07:30:55.754Z,2.40
2023-04-04T07:33:24.092Z,2.55
2023-04-04T07:35:53.358Z,2.20
2023-04-04T07:38:22.006Z,2.47
2023-04-04T07:40:50.796Z,3.60
2023-04-04T07:43:20.619Z,2.50
2023-04-04T07:45:49.157Z,2.78
2023-04-04T07:48:19.643Z,3.15
2023-04-04T07:50:48.996Z,3.95
2023-04-04T07:53:17.173Z,3.30
2023-04-04T07:55:45.699Z,2.75
2023-04-04T07:58:13.924Z,3.42
2023-04-04T08:00:43.704Z,2.70
2023-04-04T08:03:12.544Z,3.15
2023-04-04T08:05:41.356Z,3.45
2023-04-04T08:08:09.518Z,3.15
2023-04-04T08:10:38.416Z,2.90
2023-04-04T08:13:07.074Z,3.13
2023-04-04T08:15:35.685Z,2.72
2023-04-04T08:18:05.552Z,2.40
2023-04-04T08:20:35.220Z,3.10
2023-04-04T08:23:04.383Z,3.95
2023-04-04T08:25:32.878Z,3.05
2023-04-04T08:28:01.292Z,2.95
2023-04-04T08:30:29.718Z,2.97
2023-04-04T08:32:57.950Z,3.00
2023-04-04T08:35:28.049Z,2.38
2023-04-04T08:37:57.440Z,2.83
2023-04-04T08:40:26.223Z,2.85
2023-04-04T08:42:54.676Z,2.20
2023-04-04T08:45:23.373Z,2.40
2023-04-04T08:47:53.991Z,2.50
2023-04-04T08:50:23.335Z,3.45
2023-04-04T08:52:53.677Z,2.63
2023-04-04T08:55:22.746Z,2.20
2023-04-04T08:57:50.967Z,2.40
2023-04-04T09:00:21.694Z,8.50
2023-04-04T09:02:57.989Z,4.00
2023-04-04T09:05:27.360Z,2.75
2023-04-04T09:07:57.713Z,4.40
2023-04-04T09:10:27.110Z,1.95
2023-04-04T09:13:05.092Z,2.00
2023-04-04T09:15:42.901Z,1.98
2023-04-04T09:18:11.122Z,1.88
2023-04-04T09:20:41.414Z,1.70
2023-04-04T09:23:12.888Z,1.60
2023-04-04T09:25:56.558Z,1.80
2023-04-04T09:28:31.330Z,3.17
2023-04-04T09:31:02.472Z,2.40
2023-04-04T09:33:34.434Z,2.92
2023-04-04T09:36:04.598Z,3.15
2023-04-04T09:38:38.025Z,3.00
2023-04-04T09:41:09.779Z,2.67
2023-04-04T09:46:07.976Z,2.40
2023-04-04T09:48:37.722Z,2.35
2023-04-04T09:51:07.484Z,2.78
2023-04-04T09:53:38.202Z,2.17
2023-04-04T09:56:07.833Z,2.60
2023-04-04T09:58:36.731Z,1.92
2023-04-04T10:01:10.048Z,2.53
2023-04-04T10:03:39.730Z,2.60
2023-04-04T10:06:10.047Z,2.60
2023-04-04T10:08:41.234Z,3.53
2023-04-04T10:11:12.312Z,2.70
2023-04-04T10:13:44.320Z,3.00
2023-04-04T10:16:20.859Z,3.20
2023-04-04T10:18:52.008Z,3.00
2023-04-04T10:23:50.733Z,4.70
2023-04-04T10:26:27.905Z,3.45
2023-04-04T10:29:00.660Z,5.50
2023-04-04T10:31:34.329Z,11.40
2023-04-04T10:34:12.938Z,3.58
2023-04-04T10:36:46.543Z,3.33
2023-04-04T10:39:22.804Z,4.43
2023-04-04T10:41:52.857Z,3.40
2023-04-04T10:44:28.760Z,4.68
2023-04-04T10:46:59.723Z,2.83
2023-04-04T10:49:29.909Z,2.35
2023-04-04T10:51:58.703Z,2.93
2023-04-04T10:54:29.263Z,2.75
2023-04-04T10:57:00.896Z,2.65
2023-04-04T11:01:59.235Z,2.50
2023-04-04T11:04:34.218Z,2.70
2023-04-04T11:07:10.913Z,2.60
2023-04-04T11:10:04.827Z,2.53
2023-04-04T11:12:36.398Z,2.40
2023-04-04T11:17:57.759Z,2.38
2023-04-04T11:20:30.795Z,2.35
2023-04-04T11:23:07.616Z,2.53
2023-04-04T11:25:42.155Z,2.08
2023-04-04T11:28:15.868Z,2.33
2023-04-04T11:30:50.339Z,2.20
2023-04-04T11:33:30.826Z,2.17
2023-04-04T11:36:08.397Z,2.15
2023-04-04T11:38:41.349Z,2.67
2023-04-04T11:41:11.884Z,4.25
2023-04-04T11:43:46.804Z,4.22
2023-04-04T11:46:18.642Z,2.55
2023-04-04T11:48:47.428Z,3.13
2023-04-04T11:51:15.954Z,2.30
2023-04-04T11:53:44.735Z,3.40
2023-04-04T11:56:18.134Z,2.75
2023-04-04T11:58:53.841Z,3.10
2023-04-04T12:01:27.222Z,3.50
2023-04-04T12:03:55.882Z,26.63
2023-04-04T12:06:24.274Z,6.35
2023-04-04T12:08:52.835Z,2.97
2023-04-04T12:11:23.621Z,3.80
2023-04-04T12:13:52.549Z,5.05
2023-04-04T12:16:20.968Z,3.35
2023-04-04T12:18:50.887Z,3.97
2023-04-04T12:21:19.196Z,4.75
2023-04-04T12:23:48.607Z,4.22
2023-04-04T12:26:17.118Z,3.03
2023-04-04T12:28:47.306Z,2.40
2023-04-04T12:31:16.288Z,2.70
2023-04-04T12:33:45.004Z,2.60
2023-04-04T12:36:13.208Z,2.72
2023-04-04T12:38:57.852Z,2.80
2023-04-04T12:41:26.035Z,3.90
2023-04-04T12:44:02.371Z,2.97
2023-04-04T12:46:36.809Z,2.78
2023-04-04T12:49:05.499Z,2.78
2023-04-04T12:51:34.503Z,3.40
2023-04-04T12:54:05.361Z,2.72
2023-04-04T12:56:33.723Z,3.00
2023-04-04T12:59:04.798Z,2.70
2023-04-04T13:01:33.505Z,3.00
2023-04-04T13:04:04.698Z,3.10
2023-04-04T13:06:33.918Z,4.43
2023-04-04T13:09:04.170Z,23.42
2023-04-04T13:11:59.990Z,33.00
2023-04-04T13:14:30.244Z,17.20
2023-04-04T13:17:08.360Z,8.77
2023-04-04T13:19:37.084Z,5.68
2023-04-04T13:22:08.894Z,4.45
2023-04-04T13:24:39.253Z,3.15
2023-04-04T13:27:08.286Z,3.60
2023-04-04T13:29:38.342Z,2.97
2023-04-04T13:32:06.817Z,3.22
2023-04-04T13:34:36.275Z,3.30
2023-04-04T13:37:04.762Z,2.65
2023-04-04T13:39:33.396Z,2.55
2023-04-04T13:42:02.190Z,2.95
2023-04-04T13:44:30.741Z,2.80
2023-04-04T13:47:01.431Z,3.05
2023-04-04T13:49:30.063Z,2.33
2023-04-04T13:51:58.337Z,2.33
2023-04-04T13:54:27.034Z,2.80
2023-04-04T13:56:56.619Z,2.58
2023-04-04T13:59:25.164Z,2.28
2023-04-04T14:01:53.736Z,2.67
2023-04-04T14:04:24.352Z,2.63
2023-04-04T14:06:52.908Z,3.03
2023-04-04T14:09:21.427Z,2.65
2023-04-04T14:11:49.743Z,2.63
2023-04-04T14:14:18.284Z,3.03
2023-04-04T14:16:46.522Z,3.40
2023-04-04T14:22:02.682Z,2.40
2023-04-04T14:24:31.252Z,2.75
2023-04-04T14:26:59.603Z,2.72
2023-04-04T14:29:28.378Z,2.97
2023-04-04T14:31:56.860Z,3.42
2023-04-04T14:34:28.134Z,3.08
2023-04-04T14:36:56.334Z,2.75
2023-04-04T14:39:31.307Z,2.67
2023-04-04T14:41:59.583Z,2.50
2023-04-04T14:44:28.402Z,2.40
2023-04-04T14:46:56.790Z,2.95
2023-04-04T14:49:28.550Z,2.67
2023-04-04T14:54:30.628Z,2.17
2023-04-04T14:56:59.068Z,2.65
2023-04-04T14:59:30.772Z,2.63
2023-04-04T15:01:59.117Z,2.72
2023-04-04T15:04:29.936Z,3.47
2023-04-04T15:07:03.359Z,3.60
2023-04-04T15:09:36.239Z,2.70
2023-04-04T15:12:04.646Z,3.55
2023-04-04T15:14:33.255Z,3.33
2023-04-04T15:17:01.691Z,3.13
2023-04-04T15:19:30.141Z,2.85
2023-04-04T15:21:58.344Z,3.17
2023-04-04T15:24:27.143Z,2.85
2023-04-04T15:26:57.778Z,3.22
2023-04-04T15:29:26.578Z,3.65
2023-04-04T15:31:54.964Z,2.90
2023-04-04T15:34:23.565Z,2.55
2023-04-04T15:36:52.276Z,3.28
2023-04-04T15:39:20.799Z,2.58
2023-04-04T15:41:49.048Z,3.10
2023-04-04T15:44:19.143Z,2.40
2023-04-04T15:46:47.535Z,2.97
2023-04-04T15:49:16.196Z,3.45
2023-04-04T15:51:46.044Z,3.55
2023-04-04T15:54:14.734Z,2.80
2023-04-04T15:56:43.102Z,2.72
2023-04-04T15:59:11.781Z,3.50
2023-04-04T16:01:42.005Z,2.80
2023-04-04T16:04:10.660Z,3.13
2023-04-04T16:06:39.207Z,2.83
2023-04-04T16:09:07.631Z,2.53
2023-04-04T16:11:35.808Z,2.55
2023-04-04T16:14:06.003Z,3.17
2023-04-04T16:16:34.440Z,2.92
2023-04-04T16:19:04.335Z,4.20
2023-04-04T16:21:32.692Z,4.68
2023-04-04T16:24:03.572Z,3.45
2023-04-04T16:26:31.840Z,3.83
2023-04-04T16:29:03.241Z,2.78
2023-04-04T16:31:31.564Z,3.80
2023-04-04T16:34:00.306Z,2.60
2023-04-04T16:36:30.144Z,3.35
2023-04-04T16:38:59.586Z,3.50
2023-04-04T16:41:27.848Z,3.63
2023-04-04T16:43:56.420Z,4.63
2023-04-04T16:46:24.673Z,3.25
2023-04-04T16:48:53.479Z,3.13
2023-04-04T16:51:21.768Z,2.70
2023-04-04T16:53:51.808Z,2.50
2023-04-04T16:56:20.034Z,2.63
2023-04-04T16:58:48.573Z,2.85
2023-04-04T17:01:20.839Z,4.97
2023-04-04T17:03:49.708Z,4.05
2023-04-04T17:06:18.234Z,4.20
2023-04-04T17:08:46.852Z,4.18
2023-04-04T17:11:16.988Z,4.65
2023-04-04T17:13:46.158Z,3.92
2023-04-04T17:16:14.622Z,4.93
2023-04-04T17:18:43.394Z,4.15
2023-04-04T17:21:11.634Z,5.13
2023-04-04T17:23:40.287Z,4.93
2023-04-04T17:26:08.474Z,6.15
2023-04-04T17:28:38.890Z,4.68
2023-04-04T17:31:07.763Z,5.80
2023-04-04T17:33:36.407Z,5.72
2023-04-04T17:36:05.165Z,5.15
2023-04-04T17:38:34.267Z,7.60
2023-04-04T17:41:04.293Z,3.58
2023-04-04T17:43:33.001Z,4.63
2023-04-04T17:46:02.819Z,5.90
2023-04-04T17:48:33.629Z,5.28
2023-04-04T17:51:02.231Z,7.68
2023-04-04T17:53:30.932Z,3.95
2023-04-04T17:55:59.889Z,5.40
2023-04-04T17:58:28.369Z,4.50
2023-04-04T18:00:57.670Z,3.97
2023-04-04T18:03:28.180Z,4.85
2023-04-04T18:05:57.133Z,3.47
2023-04-04T18:08:25.872Z,3.47
2023-04-04T18:10:54.055Z,5.03
2023-04-04T18:13:22.665Z,3.75
2023-04-04T18:15:51.752Z,4.63
2023-04-04T18:18:21.605Z,5.07
2023-04-04T18:20:51.335Z,5.43
2023-04-04T18:23:19.829Z,5.05
2023-04-04T18:25:48.092Z,5.28
2023-04-04T18:28:16.522Z,5.13
2023-04-04T18:30:44.827Z,4.60
2023-04-04T18:33:13.452Z,4.97
2023-04-04T18:35:41.744Z,5.85
2023-04-04T18:38:12.280Z,5.63
2023-04-04T18:40:40.616Z,4.07
2023-04-04T18:43:09.321Z,4.30
2023-04-04T18:45:40.712Z,6.63
2023-04-04T18:48:09.564Z,6.50
2023-04-04T18:50:37.908Z,5.75
2023-04-04T18:53:06.823Z,5.90
2023-04-04T18:55:36.468Z,5.70
2023-04-04T18:58:05.112Z,6.07
2023-04-04T19:00:35.745Z,6.50
2023-04-04T19:03:04.766Z,6.03
2023-04-04T19:05:34.177Z,6.35
2023-04-04T19:08:03.336Z,5.85
2023-04-04T19:10:31.675Z,6.25
2023-04-04T19:13:01.583Z,8.20
2023-04-04T19:15:30.485Z,7.97
2023-04-04T19:17:58.975Z,8.38
2023-04-04T19:20:27.386Z,9.18
2023-04-04T19:22:55.929Z,9.05
2023-04-04T19:25:24.042Z,9.50
2023-04-04T19:27:52.577Z,8.88
2023-04-04T19:30:41.810Z,9.30
2023-04-04T19:33:12.022Z,9.25
2023-04-04T19:35:51.827Z,7.78
2023-04-04T19:38:26.117Z,8.52
2023-04-04T19:40:57.905Z,8.85
2023-04-04T19:43:28.549Z,8.55
2023-04-04T19:46:00.607Z,8.90
2023-04-04T19:48:46.125Z,8.55
2023-04-04T19:51:38.986Z,8.80
2023-04-04T19:54:09.943Z,9.05
2023-04-04T19:56:38.046Z,9.13
2023-04-04T19:59:10.447Z,8.60
2023-04-04T20:01:44.873Z,9.20
2023-04-04T20:04:19.006Z,9.57
2023-04-04T20:06:49.073Z,9.57
2023-04-04T20:09:32.670Z,10.60
2023-04-04T20:12:00.882Z,11.98
2023-04-04T20:14:30.050Z,11.30
2023-04-04T20:16:59.679Z,12.73
2023-04-04T20:19:29.068Z,11.88
2023-04-04T20:21:57.335Z,12.88
2023-04-04T20:24:26.121Z,12.60
2023-04-04T20:26:59.264Z,10.27
2023-04-04T20:29:29.476Z,11.27
2023-04-04T20:32:02.861Z,11.50
2023-04-04T20:34:45.727Z,11.27
2023-04-04T20:37:16.393Z,9.75
2023-04-04T20:39:49.312Z,9.13
2023-04-04T20:42:44.718Z,10.27
2023-04-04T20:45:39.385Z,9.95
2023-04-04T20:48:09.500Z,8.82
2023-04-04T20:50:45.772Z,10.10
2023-04-04T20:53:20.657Z,9.23
2023-04-04T20:55:50.540Z,9.95
2023-04-04T20:58:28.011Z,9.35
2023-04-04T21:00:58.065Z,9.35
2023-04-04T21:03:36.829Z,9.90
2023-04-04T21:06:16.092Z,10.73
2023-04-04T21:08:46.063Z,10.48
2023-04-04T21:11:15.481Z,9.80
2023-04-04T21:13:45.680Z,9.60
2023-04-04T21:16:16.979Z,9.50
2023-04-04T21:18:47.326Z,12.27
2023-04-04T21:21:18.925Z,13.27
2023-04-04T21:23:52.742Z,13.15
2023-04-04T21:26:27.772Z,14.25
2023-04-04T21:28:56.550Z,14.30
2023-04-04T21:31:27.077Z,16.17
2023-04-04T21:33:58.373Z,15.45
2023-04-04T21:36:29.722Z,17.33
2023-04-04T21:38:59.099Z,22.00
2023-04-04T21:41:28.844Z,25.35
2023-04-04T21:43:58.092Z,21.88
2023-04-04T21:46:27.754Z,20.10
2023-04-04T21:48:57.636Z,19.60
2023-04-04T21:51:26.337Z,22.45
2023-04-04T21:53:54.922Z,28.65
2023-04-04T21:56:27.374Z,36.05
2023-04-04T21:58:56.072Z,39.53
2023-04-04T22:01:25.434Z,40.78
2023-04-04T22:03:53.663Z,39.67
2023-04-04T22:06:25.492Z,36.35
2023-04-04T22:08:53.709Z,36.70
2023-04-04T22:11:23.152Z,38.05
2023-04-04T22:13:51.889Z,36.97
2023-04-04T22:16:21.253Z,40.75
2023-04-04T22:18:52.312Z,38.22
2023-04-04T22:21:26.057Z,36.35
2023-04-04T22:24:01.132Z,39.10
2023-04-04T22:26:35.798Z,38.20
2023-04-04T22:29:05.549Z,34.42
2023-04-04T22:31:35.403Z,32.50
2023-04-04T22:34:04.071Z,32.42
2023-04-04T22:36:34.680Z,31.67
2023-04-04T22:39:04.950Z,31.13
2023-04-04T22:41:33.452Z,31.67
2023-04-04T22:44:01.613Z,31.08
2023-04-04T22:46:30.123Z,31.70
2023-04-04T22:49:05.731Z,31.88
2023-04-04T22:51:43.510Z,35.15
2023-04-04T22:54:14.677Z,39.38
2023-04-04T22:59:11.816Z,38.22
2023-04-04T23:01:40.665Z,35.60
2023-04-04T23:04:08.971Z,32.45
2023-04-04T23:06:38.598Z,31.50
2023-04-04T23:09:08.248Z,30.80
2023-04-04T23:11:38.251Z,30.60
2023-04-04T23:14:09.426Z,30.15
2023-04-04T23:16:41.106Z,30.67
2023-04-04T23:19:09.847Z,32.75
2023-04-04T23:21:38.383Z,31.15
2023-04-04T23:24:07.504Z,29.13
2023-04-04T23:26:37.283Z,27.55
2023-04-04T23:29:05.910Z,28.38
2023-04-04T23:31:37.579Z,28.73
2023-04-04T23:36:34.258Z,27.80
2023-04-04T23:39:03.432Z,29.10
2023-04-04T23:41:32.330Z,28.80
2023-04-04T23:44:02.246Z,28.40
2023-04-04T23:46:32.775Z,28.67
2023-04-04T23:49:01.368Z,31.85
2023-04-04T23:51:37.926Z,32.65
2023-04-04T23:54:06.629Z,36.38
2023-04-04T23:56:35.242Z,35.78
2023-04-04T23:59:05.807Z,35.65
